sensor_id;sensor_type;location;lat;lon;timestamp;P1;durP1;ratioP1;P2;durP2;ratioP2
65896;SDS011;52677;50.898;10.854;2024-01-25T00:00:16;19.80;;;3.53;;
65896;SDS011;52677;50.898;10.854;2024-01-25T00:02:17;13.10;;;3.65;;
65896;SDS011;52677;50.898;10.854;2024-01-25T00:04:17;18.80;;;3.92;;
65896;SDS011;52677;50.898;10.854;2024-01-25T00:06:17;16.15;;;3.67;;
65896;SDS011;52677;50.898;10.854;2024-01-25T00:08:18;14.40;;;4.47;;
65896;SDS011;52677;50.898;10.854;2024-01-25T00:10:18;10.77;;;2.95;;
65896;SDS011;52677;50.898;10.854;2024-01-25T00:12:18;13.25;;;3.55;;
65896;SDS011;52677;50.898;10.854;2024-01-25T00:14:19;10.20;;;3.60;;
65896;SDS011;52677;50.898;10.854;2024-01-25T00:16:19;10.88;;;3.67;;
65896;SDS011;52677;50.898;10.854;2024-01-25T00:18:19;13.93;;;4.78;;
65896;SDS011;52677;50.898;10.854;2024-01-25T00:20:20;15.55;;;3.60;;
65896;SDS011;52677;50.898;10.854;2024-01-25T00:22:20;16.85;;;4.43;;
65896;SDS011;52677;50.898;10.854;2024-01-25T00:24:20;11.52;;;3.10;;
65896;SDS011;52677;50.898;10.854;2024-01-25T00:26:21;9.70;;;3.10;;
65896;SDS011;52677;50.898;10.854;2024-01-25T00:28:21;14.77;;;3.55;;
65896;SDS011;52677;50.898;10.854;2024-01-25T00:30:21;14.45;;;3.67;;
65896;SDS011;52677;50.898;10.854;2024-01-25T00:32:21;11.80;;;3.55;;
65896;SDS011;52677;50.898;10.854;2024-01-25T00:34:22;12.60;;;4.25;;
65896;SDS011;52677;50.898;10.854;2024-01-25T00:36:23;13.38;;;3.22;;
65896;SDS011;52677;50.898;10.854;2024-01-25T00:38:23;13.77;;;3.80;;
65896;SDS011;52677;50.898;10.854;2024-01-25T00:40:24;18.58;;;3.55;;
65896;SDS011;52677;50.898;10.854;2024-01-25T00:42:25;15.27;;;3.88;;
65896;SDS011;52677;50.898;10.854;2024-01-25T00:44:26;12.10;;;3.60;;
65896;SDS011;52677;50.898;10.854;2024-01-25T00:46:27;13.57;;;3.63;;
65896;SDS011;52677;50.898;10.854;2024-01-25T00:48:28;13.55;;;4.10;;
65896;SDS011;52677;50.898;10.854;2024-01-25T00:50:29;13.32;;;3.58;;
65896;SDS011;52677;50.898;10.854;2024-01-25T00:52:29;19.15;;;3.88;;
65896;SDS011;52677;50.898;10.854;2024-01-25T00:54:30;15.40;;;3.97;;
65896;SDS011;52677;50.898;10.854;2024-01-25T00:56:30;21.08;;;4.00;;
65896;SDS011;52677;50.898;10.854;2024-01-25T00:58:31;17.55;;;3.97;;
65896;SDS011;52677;50.898;10.854;2024-01-25T01:00:32;15.68;;;3.50;;
65896;SDS011;52677;50.898;10.854;2024-01-25T01:02:36;13.60;;;3.85;;
65896;SDS011;52677;50.898;10.854;2024-01-25T01:04:40;13.65;;;3.95;;
65896;SDS011;52677;50.898;10.854;2024-01-25T01:06:41;18.85;;;4.38;;
65896;SDS011;52677;50.898;10.854;2024-01-25T01:08:41;16.25;;;3.45;;
65896;SDS011;52677;50.898;10.854;2024-01-25T01:10:42;13.60;;;4.20;;
65896;SDS011;52677;50.898;10.854;2024-01-25T01:12:42;16.10;;;3.38;;
65896;SDS011;52677;50.898;10.854;2024-01-25T01:14:42;12.50;;;3.35;;
65896;SDS011;52677;50.898;10.854;2024-01-25T01:16:43;12.48;;;4.05;;
65896;SDS011;52677;50.898;10.854;2024-01-25T01:18:43;13.55;;;3.55;;
65896;SDS011;52677;50.898;10.854;2024-01-25T01:20:43;13.00;;;3.97;;
65896;SDS011;52677;50.898;10.854;2024-01-25T01:22:44;13.13;;;3.63;;
65896;SDS011;52677;50.898;10.854;2024-01-25T01:24:44;12.52;;;3.78;;
65896;SDS011;52677;50.898;10.854;2024-01-25T01:26:45;13.68;;;3.97;;
65896;SDS011;52677;50.898;10.854;2024-01-25T01:28:46;12.13;;;3.45;;
65896;SDS011;52677;50.898;10.854;2024-01-25T01:30:47;16.15;;;4.10;;
65896;SDS011;52677;50.898;10.854;2024-01-25T01:32:47;15.60;;;4.10;;
65896;SDS011;52677;50.898;10.854;2024-01-25T01:34:47;18.10;;;4.03;;
65896;SDS011;52677;50.898;10.854;2024-01-25T01:36:47;17.85;;;5.10;;
65896;SDS011;52677;50.898;10.854;2024-01-25T01:38:48;12.68;;;3.63;;
65896;SDS011;52677;50.898;10.854;2024-01-25T01:40:48;15.27;;;3.85;;
65896;SDS011;52677;50.898;10.854;2024-01-25T01:42:48;9.60;;;3.58;;
65896;SDS011;52677;50.898;10.854;2024-01-25T01:44:49;12.23;;;4.25;;
65896;SDS011;52677;50.898;10.854;2024-01-25T01:46:51;9.25;;;3.97;;
65896;SDS011;52677;50.898;10.854;2024-01-25T01:48:52;16.05;;;3.63;;
65896;SDS011;52677;50.898;10.854;2024-01-25T01:50:52;12.95;;;3.63;;
65896;SDS011;52677;50.898;10.854;2024-01-25T01:52:53;11.45;;;3.97;;
65896;SDS011;52677;50.898;10.854;2024-01-25T01:54:53;15.70;;;4.38;;
65896;SDS011;52677;50.898;10.854;2024-01-25T01:56:54;15.55;;;3.97;;
65896;SDS011;52677;50.898;10.854;2024-01-25T01:58:59;18.23;;;4.20;;
65896;SDS011;52677;50.898;10.854;2024-01-25T02:01:00;14.98;;;3.88;;
65896;SDS011;52677;50.898;10.854;2024-01-25T02:03:02;13.45;;;3.55;;
65896;SDS011;52677;50.898;10.854;2024-01-25T02:05:03;15.40;;;3.88;;
65896;SDS011;52677;50.898;10.854;2024-01-25T02:07:03;11.68;;;3.58;;
65896;SDS011;52677;50.898;10.854;2024-01-25T02:09:04;11.50;;;3.47;;
65896;SDS011;52677;50.898;10.854;2024-01-25T02:11:05;15.02;;;3.58;;
65896;SDS011;52677;50.898;10.854;2024-01-25T02:13:05;15.60;;;3.90;;
65896;SDS011;52677;50.898;10.854;2024-01-25T02:15:05;12.02;;;4.20;;
65896;SDS011;52677;50.898;10.854;2024-01-25T02:17:06;10.98;;;3.95;;
65896;SDS011;52677;50.898;10.854;2024-01-25T02:19:06;17.15;;;4.40;;
65896;SDS011;52677;50.898;10.854;2024-01-25T02:21:06;12.32;;;3.50;;
65896;SDS011;52677;50.898;10.854;2024-01-25T02:23:07;18.15;;;4.00;;
65896;SDS011;52677;50.898;10.854;2024-01-25T02:25:07;18.02;;;4.65;;
65896;SDS011;52677;50.898;10.854;2024-01-25T02:27:07;23.30;;;5.22;;
65896;SDS011;52677;50.898;10.854;2024-01-25T02:29:08;17.08;;;3.90;;
65896;SDS011;52677;50.898;10.854;2024-01-25T02:31:09;21.80;;;5.80;;
65896;SDS011;52677;50.898;10.854;2024-01-25T02:33:10;15.95;;;3.90;;
65896;SDS011;52677;50.898;10.854;2024-01-25T02:35:10;9.85;;;3.67;;
65896;SDS011;52677;50.898;10.854;2024-01-25T02:37:10;13.32;;;3.72;;
65896;SDS011;52677;50.898;10.854;2024-01-25T02:39:12;15.75;;;4.00;;
65896;SDS011;52677;50.898;10.854;2024-01-25T02:41:12;14.10;;;3.67;;
65896;SDS011;52677;50.898;10.854;2024-01-25T02:43:12;16.75;;;3.53;;
65896;SDS011;52677;50.898;10.854;2024-01-25T02:45:13;16.88;;;4.10;;
65896;SDS011;52677;50.898;10.854;2024-01-25T02:47:13;15.60;;;4.32;;
65896;SDS011;52677;50.898;10.854;2024-01-25T02:49:15;11.95;;;3.65;;
65896;SDS011;52677;50.898;10.854;2024-01-25T02:51:15;25.05;;;4.53;;
65896;SDS011;52677;50.898;10.854;2024-01-25T02:53:16;14.02;;;3.92;;
65896;SDS011;52677;50.898;10.854;2024-01-25T02:55:18;16.95;;;4.55;;
65896;SDS011;52677;50.898;10.854;2024-01-25T02:57:19;18.40;;;4.15;;
65896;SDS011;52677;50.898;10.854;2024-01-25T02:59:19;18.70;;;4.85;;
65896;SDS011;52677;50.898;10.854;2024-01-25T03:01:20;16.40;;;3.40;;
65896;SDS011;52677;50.898;10.854;2024-01-25T03:03:20;15.82;;;5.45;;
65896;SDS011;52677;50.898;10.854;2024-01-25T03:05:20;13.82;;;3.53;;
65896;SDS011;52677;50.898;10.854;2024-01-25T03:07:20;14.70;;;4.07;;
65896;SDS011;52677;50.898;10.854;2024-01-25T03:09:21;13.85;;;3.40;;
65896;SDS011;52677;50.898;10.854;2024-01-25T03:11:23;14.60;;;3.58;;
65896;SDS011;52677;50.898;10.854;2024-01-25T03:13:23;15.77;;;3.90;;
65896;SDS011;52677;50.898;10.854;2024-01-25T03:15:24;11.27;;;3.10;;
65896;SDS011;52677;50.898;10.854;2024-01-25T03:17:24;17.35;;;5.65;;
65896;SDS011;52677;50.898;10.854;2024-01-25T03:19:26;10.13;;;4.00;;
65896;SDS011;52677;50.898;10.854;2024-01-25T03:21:27;15.25;;;4.40;;
65896;SDS011;52677;50.898;10.854;2024-01-25T03:23:27;17.92;;;4.47;;
65896;SDS011;52677;50.898;10.854;2024-01-25T03:25:28;14.23;;;4.30;;
65896;SDS011;52677;50.898;10.854;2024-01-25T03:27:28;22.35;;;4.28;;
65896;SDS011;52677;50.898;10.854;2024-01-25T03:29:28;20.80;;;4.07;;
65896;SDS011;52677;50.898;10.854;2024-01-25T03:31:28;17.90;;;3.72;;
65896;SDS011;52677;50.898;10.854;2024-01-25T03:33:29;14.73;;;3.85;;
65896;SDS011;52677;50.898;10.854;2024-01-25T03:35:29;13.85;;;4.30;;
65896;SDS011;52677;50.898;10.854;2024-01-25T03:37:29;12.75;;;4.20;;
65896;SDS011;52677;50.898;10.854;2024-01-25T03:39:30;15.38;;;4.60;;
65896;SDS011;52677;50.898;10.854;2024-01-25T03:41:30;18.25;;;4.13;;
65896;SDS011;52677;50.898;10.854;2024-01-25T03:43:31;15.80;;;3.88;;
65896;SDS011;52677;50.898;10.854;2024-01-25T03:45:31;18.02;;;5.72;;
65896;SDS011;52677;50.898;10.854;2024-01-25T03:47:32;15.00;;;3.70;;
65896;SDS011;52677;50.898;10.854;2024-01-25T03:49:32;19.98;;;4.57;;
65896;SDS011;52677;50.898;10.854;2024-01-25T03:51:33;12.15;;;3.70;;
65896;SDS011;52677;50.898;10.854;2024-01-25T03:53:33;23.77;;;4.72;;
65896;SDS011;52677;50.898;10.854;2024-01-25T03:55:34;13.35;;;3.72;;
65896;SDS011;52677;50.898;10.854;2024-01-25T03:57:34;12.50;;;4.05;;
65896;SDS011;52677;50.898;10.854;2024-01-25T03:59:36;14.75;;;4.22;;
65896;SDS011;52677;50.898;10.854;2024-01-25T04:01:45;10.45;;;4.13;;
65896;SDS011;52677;50.898;10.854;2024-01-25T04:03:47;15.27;;;3.90;;
65896;SDS011;52677;50.898;10.854;2024-01-25T04:05:47;15.93;;;3.97;;
65896;SDS011;52677;50.898;10.854;2024-01-25T04:07:47;14.30;;;3.90;;
65896;SDS011;52677;50.898;10.854;2024-01-25T04:09:48;17.33;;;4.15;;
65896;SDS011;52677;50.898;10.854;2024-01-25T04:11:50;16.73;;;4.30;;
65896;SDS011;52677;50.898;10.854;2024-01-25T04:13:50;14.57;;;4.53;;
65896;SDS011;52677;50.898;10.854;2024-01-25T04:15:51;19.50;;;4.47;;
65896;SDS011;52677;50.898;10.854;2024-01-25T04:17:51;18.90;;;4.88;;
65896;SDS011;52677;50.898;10.854;2024-01-25T04:19:53;13.95;;;4.18;;
65896;SDS011;52677;50.898;10.854;2024-01-25T04:21:53;20.35;;;5.30;;
65896;SDS011;52677;50.898;10.854;2024-01-25T04:23:53;19.77;;;5.00;;
65896;SDS011;52677;50.898;10.854;2024-01-25T04:25:53;18.15;;;5.15;;
65896;SDS011;52677;50.898;10.854;2024-01-25T04:27:55;14.75;;;4.45;;
65896;SDS011;52677;50.898;10.854;2024-01-25T04:29:55;20.50;;;4.10;;
65896;SDS011;52677;50.898;10.854;2024-01-25T04:31:56;20.95;;;5.35;;
65896;SDS011;52677;50.898;10.854;2024-01-25T04:33:56;19.10;;;4.60;;
65896;SDS011;52677;50.898;10.854;2024-01-25T04:35:56;14.80;;;4.38;;
65896;SDS011;52677;50.898;10.854;2024-01-25T04:37:57;11.80;;;4.45;;
65896;SDS011;52677;50.898;10.854;2024-01-25T04:39:57;20.27;;;5.05;;
65896;SDS011;52677;50.898;10.854;2024-01-25T04:41:57;16.42;;;3.85;;
65896;SDS011;52677;50.898;10.854;2024-01-25T04:43:57;9.25;;;4.15;;
65896;SDS011;52677;50.898;10.854;2024-01-25T04:45:58;14.23;;;4.00;;
65896;SDS011;52677;50.898;10.854;2024-01-25T04:47:58;21.42;;;4.68;;
65896;SDS011;52677;50.898;10.854;2024-01-25T04:49:58;15.90;;;3.60;;
65896;SDS011;52677;50.898;10.854;2024-01-25T04:51:59;13.88;;;4.40;;
65896;SDS011;52677;50.898;10.854;2024-01-25T04:53:59;16.73;;;4.18;;
65896;SDS011;52677;50.898;10.854;2024-01-25T04:55:59;14.82;;;4.10;;
65896;SDS011;52677;50.898;10.854;2024-01-25T04:58:00;13.25;;;4.40;;
65896;SDS011;52677;50.898;10.854;2024-01-25T05:00:00;14.80;;;4.78;;
65896;SDS011;52677;50.898;10.854;2024-01-25T05:02:00;13.63;;;4.72;;
65896;SDS011;52677;50.898;10.854;2024-01-25T05:04:01;14.95;;;4.38;;
65896;SDS011;52677;50.898;10.854;2024-01-25T05:06:01;13.02;;;5.07;;
65896;SDS011;52677;50.898;10.854;2024-01-25T05:08:02;19.23;;;4.05;;
65896;SDS011;52677;50.898;10.854;2024-01-25T05:10:02;20.02;;;5.32;;
65896;SDS011;52677;50.898;10.854;2024-01-25T05:12:02;14.75;;;4.20;;
65896;SDS011;52677;50.898;10.854;2024-01-25T05:14:03;19.50;;;4.18;;
65896;SDS011;52677;50.898;10.854;2024-01-25T05:16:03;15.05;;;4.35;;
65896;SDS011;52677;50.898;10.854;2024-01-25T05:18:04;16.65;;;4.57;;
65896;SDS011;52677;50.898;10.854;2024-01-25T05:20:06;13.97;;;4.63;;
65896;SDS011;52677;50.898;10.854;2024-01-25T05:22:06;11.25;;;3.60;;
65896;SDS011;52677;50.898;10.854;2024-01-25T05:24:07;13.32;;;4.75;;
65896;SDS011;52677;50.898;10.854;2024-01-25T05:26:09;18.98;;;4.60;;
65896;SDS011;52677;50.898;10.854;2024-01-25T05:28:10;10.52;;;4.28;;
65896;SDS011;52677;50.898;10.854;2024-01-25T05:30:11;20.27;;;4.45;;
65896;SDS011;52677;50.898;10.854;2024-01-25T05:32:11;12.57;;;4.22;;
65896;SDS011;52677;50.898;10.854;2024-01-25T05:34:12;15.65;;;4.07;;
65896;SDS011;52677;50.898;10.854;2024-01-25T05:36:12;15.38;;;4.38;;
65896;SDS011;52677;50.898;10.854;2024-01-25T05:38:13;14.25;;;3.88;;
65896;SDS011;52677;50.898;10.854;2024-01-25T05:40:14;13.98;;;4.63;;
65896;SDS011;52677;50.898;10.854;2024-01-25T05:42:14;21.52;;;4.82;;
65896;SDS011;52677;50.898;10.854;2024-01-25T05:44:14;16.27;;;4.25;;
65896;SDS011;52677;50.898;10.854;2024-01-25T05:46:15;14.98;;;4.13;;
65896;SDS011;52677;50.898;10.854;2024-01-25T05:48:15;15.98;;;4.57;;
65896;SDS011;52677;50.898;10.854;2024-01-25T05:50:16;12.75;;;3.92;;
65896;SDS011;52677;50.898;10.854;2024-01-25T05:52:16;11.38;;;4.05;;
65896;SDS011;52677;50.898;10.854;2024-01-25T05:54:17;13.80;;;4.88;;
65896;SDS011;52677;50.898;10.854;2024-01-25T05:56:17;15.20;;;3.97;;
65896;SDS011;52677;50.898;10.854;2024-01-25T05:58:17;14.82;;;4.38;;
65896;SDS011;52677;50.898;10.854;2024-01-25T06:00:18;20.15;;;5.78;;
65896;SDS011;52677;50.898;10.854;2024-01-25T06:02:19;11.40;;;4.60;;
65896;SDS011;52677;50.898;10.854;2024-01-25T06:04:20;14.27;;;4.68;;
65896;SDS011;52677;50.898;10.854;2024-01-25T06:06:20;22.65;;;5.20;;
65896;SDS011;52677;50.898;10.854;2024-01-25T06:08:20;16.75;;;4.00;;
65896;SDS011;52677;50.898;10.854;2024-01-25T06:10:21;12.23;;;3.95;;
65896;SDS011;52677;50.898;10.854;2024-01-25T06:12:21;15.48;;;3.78;;
65896;SDS011;52677;50.898;10.854;2024-01-25T06:14:21;12.73;;;3.10;;
65896;SDS011;52677;50.898;10.854;2024-01-25T06:16:22;14.45;;;3.25;;
65896;SDS011;52677;50.898;10.854;2024-01-25T06:18:22;10.13;;;4.47;;
65896;SDS011;52677;50.898;10.854;2024-01-25T06:20:22;13.82;;;4.13;;
65896;SDS011;52677;50.898;10.854;2024-01-25T06:22:23;10.02;;;3.30;;
65896;SDS011;52677;50.898;10.854;2024-01-25T06:24:23;10.48;;;4.70;;
65896;SDS011;52677;50.898;10.854;2024-01-25T06:26:23;14.35;;;4.07;;
65896;SDS011;52677;50.898;10.854;2024-01-25T06:28:24;13.65;;;3.88;;
65896;SDS011;52677;50.898;10.854;2024-01-25T06:30:25;8.93;;;2.88;;
65896;SDS011;52677;50.898;10.854;2024-01-25T06:32:26;9.70;;;3.00;;
65896;SDS011;52677;50.898;10.854;2024-01-25T06:34:26;12.13;;;3.47;;
65896;SDS011;52677;50.898;10.854;2024-01-25T06:36:27;12.77;;;4.07;;
65896;SDS011;52677;50.898;10.854;2024-01-25T06:38:27;9.77;;;3.28;;
65896;SDS011;52677;50.898;10.854;2024-01-25T06:40:27;11.52;;;3.17;;
65896;SDS011;52677;50.898;10.854;2024-01-25T06:42:28;15.43;;;3.35;;
65896;SDS011;52677;50.898;10.854;2024-01-25T06:44:28;15.38;;;3.08;;
65896;SDS011;52677;50.898;10.854;2024-01-25T06:46:28;9.07;;;3.90;;
65896;SDS011;52677;50.898;10.854;2024-01-25T06:48:29;13.30;;;5.43;;
65896;SDS011;52677;50.898;10.854;2024-01-25T06:50:29;15.70;;;5.22;;
65896;SDS011;52677;50.898;10.854;2024-01-25T06:52:29;27.38;;;7.00;;
65896;SDS011;52677;50.898;10.854;2024-01-25T06:54:30;24.15;;;7.57;;
65896;SDS011;52677;50.898;10.854;2024-01-25T06:56:31;15.85;;;4.07;;
65896;SDS011;52677;50.898;10.854;2024-01-25T06:58:31;14.90;;;5.82;;
65896;SDS011;52677;50.898;10.854;2024-01-25T07:00:31;9.40;;;4.22;;
65896;SDS011;52677;50.898;10.854;2024-01-25T07:02:32;9.88;;;3.10;;
65896;SDS011;52677;50.898;10.854;2024-01-25T07:04:32;13.55;;;5.22;;
65896;SDS011;52677;50.898;10.854;2024-01-25T07:06:33;8.60;;;4.30;;
65896;SDS011;52677;50.898;10.854;2024-01-25T07:08:33;16.05;;;3.85;;
65896;SDS011;52677;50.898;10.854;2024-01-25T07:10:33;10.13;;;2.88;;
65896;SDS011;52677;50.898;10.854;2024-01-25T07:12:34;9.18;;;2.92;;
65896;SDS011;52677;50.898;10.854;2024-01-25T07:14:34;14.32;;;3.80;;
65896;SDS011;52677;50.898;10.854;2024-01-25T07:16:34;12.30;;;3.30;;
65896;SDS011;52677;50.898;10.854;2024-01-25T07:18:35;8.75;;;2.72;;
65896;SDS011;52677;50.898;10.854;2024-01-25T07:20:35;11.85;;;3.08;;
65896;SDS011;52677;50.898;10.854;2024-01-25T07:22:36;11.27;;;2.80;;
65896;SDS011;52677;50.898;10.854;2024-01-25T07:24:36;13.50;;;3.08;;
65896;SDS011;52677;50.898;10.854;2024-01-25T07:26:36;10.65;;;2.60;;
65896;SDS011;52677;50.898;10.854;2024-01-25T07:28:37;12.32;;;2.45;;
65896;SDS011;52677;50.898;10.854;2024-01-25T07:30:37;9.00;;;3.22;;
65896;SDS011;52677;50.898;10.854;2024-01-25T07:32:38;14.65;;;2.90;;
65896;SDS011;52677;50.898;10.854;2024-01-25T07:34:41;6.22;;;2.50;;
65896;SDS011;52677;50.898;10.854;2024-01-25T07:36:42;9.38;;;2.80;;
65896;SDS011;52677;50.898;10.854;2024-01-25T07:38:43;10.90;;;3.00;;
65896;SDS011;52677;50.898;10.854;2024-01-25T07:40:43;9.32;;;4.00;;
65896;SDS011;52677;50.898;10.854;2024-01-25T07:42:44;8.05;;;2.28;;
65896;SDS011;52677;50.898;10.854;2024-01-25T07:44:47;8.10;;;3.00;;
65896;SDS011;52677;50.898;10.854;2024-01-25T07:46:47;12.15;;;2.92;;
65896;SDS011;52677;50.898;10.854;2024-01-25T07:48:47;8.35;;;2.70;;
65896;SDS011;52677;50.898;10.854;2024-01-25T07:50:48;6.70;;;2.53;;
65896;SDS011;52677;50.898;10.854;2024-01-25T07:52:48;11.93;;;2.83;;
65896;SDS011;52677;50.898;10.854;2024-01-25T07:54:50;8.18;;;3.15;;
65896;SDS011;52677;50.898;10.854;2024-01-25T07:56:50;13.00;;;2.75;;
65896;SDS011;52677;50.898;10.854;2024-01-25T07:58:50;11.88;;;2.42;;
65896;SDS011;52677;50.898;10.854;2024-01-25T08:00:51;12.10;;;2.70;;
65896;SDS011;52677;50.898;10.854;2024-01-25T08:02:52;8.55;;;2.38;;
65896;SDS011;52677;50.898;10.854;2024-01-25T08:04:52;10.93;;;2.53;;
65896;SDS011;52677;50.898;10.854;2024-01-25T08:06:53;12.40;;;2.45;;
65896;SDS011;52677;50.898;10.854;2024-01-25T08:08:53;8.90;;;2.45;;
65896;SDS011;52677;50.898;10.854;2024-01-25T08:10:53;16.23;;;2.97;;
65896;SDS011;52677;50.898;10.854;2024-01-25T08:12:54;8.05;;;2.33;;
65896;SDS011;52677;50.898;10.854;2024-01-25T08:14:54;10.05;;;2.35;;
65896;SDS011;52677;50.898;10.854;2024-01-25T08:16:54;6.13;;;2.60;;
65896;SDS011;52677;50.898;10.854;2024-01-25T08:18:55;10.82;;;2.75;;
65896;SDS011;52677;50.898;10.854;2024-01-25T08:20:56;8.70;;;2.40;;
65896;SDS011;52677;50.898;10.854;2024-01-25T08:22:56;15.93;;;4.35;;
65896;SDS011;52677;50.898;10.854;2024-01-25T08:24:56;15.02;;;4.72;;
65896;SDS011;52677;50.898;10.854;2024-01-25T08:26:57;11.38;;;3.67;;
65896;SDS011;52677;50.898;10.854;2024-01-25T08:28:57;8.70;;;3.00;;
65896;SDS011;52677;50.898;10.854;2024-01-25T08:30:57;9.35;;;3.13;;
65896;SDS011;52677;50.898;10.854;2024-01-25T08:32:58;8.80;;;2.90;;
65896;SDS011;52677;50.898;10.854;2024-01-25T08:34:59;12.35;;;2.88;;
65896;SDS011;52677;50.898;10.854;2024-01-25T08:36:59;7.07;;;2.38;;
65896;SDS011;52677;50.898;10.854;2024-01-25T08:38:59;12.35;;;2.58;;
65896;SDS011;52677;50.898;10.854;2024-01-25T08:41:00;9.27;;;2.42;;
65896;SDS011;52677;50.898;10.854;2024-01-25T08:43:00;9.27;;;2.47;;
65896;SDS011;52677;50.898;10.854;2024-01-25T08:45:01;9.70;;;2.95;;
65896;SDS011;52677;50.898;10.854;2024-01-25T08:47:01;17.98;;;2.92;;
65896;SDS011;52677;50.898;10.854;2024-01-25T08:49:01;10.00;;;2.67;;
65896;SDS011;52677;50.898;10.854;2024-01-25T08:51:07;14.25;;;3.80;;
65896;SDS011;52677;50.898;10.854;2024-01-25T08:53:08;13.32;;;3.72;;
65896;SDS011;52677;50.898;10.854;2024-01-25T08:55:08;11.65;;;3.20;;
65896;SDS011;52677;50.898;10.854;2024-01-25T08:57:11;12.55;;;3.28;;
65896;SDS011;52677;50.898;10.854;2024-01-25T08:59:12;11.48;;;3.20;;
65896;SDS011;52677;50.898;10.854;2024-01-25T09:01:12;15.07;;;3.75;;
65896;SDS011;52677;50.898;10.854;2024-01-25T09:03:14;14.88;;;5.07;;
65896;SDS011;52677;50.898;10.854;2024-01-25T09:05:15;11.05;;;3.40;;
65896;SDS011;52677;50.898;10.854;2024-01-25T09:07:15;11.60;;;4.20;;
65896;SDS011;52677;50.898;10.854;2024-01-25T09:09:15;13.23;;;4.35;;
65896;SDS011;52677;50.898;10.854;2024-01-25T09:11:15;10.93;;;3.33;;
65896;SDS011;52677;50.898;10.854;2024-01-25T09:13:16;13.95;;;4.00;;
65896;SDS011;52677;50.898;10.854;2024-01-25T09:15:16;13.55;;;3.60;;
65896;SDS011;52677;50.898;10.854;2024-01-25T09:17:16;12.32;;;4.82;;
65896;SDS011;52677;50.898;10.854;2024-01-25T09:19:21;10.77;;;3.78;;
65896;SDS011;52677;50.898;10.854;2024-01-25T09:21:22;14.90;;;4.78;;
65896;SDS011;52677;50.898;10.854;2024-01-25T09:23:22;19.48;;;4.18;;
65896;SDS011;52677;50.898;10.854;2024-01-25T09:25:22;13.02;;;2.60;;
65896;SDS011;52677;50.898;10.854;2024-01-25T09:27:23;12.05;;;2.63;;
65896;SDS011;52677;50.898;10.854;2024-01-25T09:29:24;6.95;;;2.80;;
65896;SDS011;52677;50.898;10.854;2024-01-25T09:31:24;11.15;;;2.78;;
65896;SDS011;52677;50.898;10.854;2024-01-25T09:33:25;10.13;;;3.00;;
65896;SDS011;52677;50.898;10.854;2024-01-25T09:35:25;6.07;;;2.30;;
65896;SDS011;52677;50.898;10.854;2024-01-25T09:37:25;10.82;;;2.75;;
65896;SDS011;52677;50.898;10.854;2024-01-25T09:39:26;8.30;;;2.03;;
65896;SDS011;52677;50.898;10.854;2024-01-25T09:41:26;5.95;;;2.15;;
65896;SDS011;52677;50.898;10.854;2024-01-25T09:43:27;6.68;;;2.50;;
65896;SDS011;52677;50.898;10.854;2024-01-25T09:45:27;10.35;;;1.88;;
65896;SDS011;52677;50.898;10.854;2024-01-25T09:47:30;9.93;;;2.33;;
65896;SDS011;52677;50.898;10.854;2024-01-25T09:49:30;6.07;;;2.33;;
65896;SDS011;52677;50.898;10.854;2024-01-25T09:51:36;7.53;;;2.42;;
65896;SDS011;52677;50.898;10.854;2024-01-25T09:53:39;3.60;;;1.77;;
65896;SDS011;52677;50.898;10.854;2024-01-25T09:55:41;12.20;;;2.78;;
65896;SDS011;52677;50.898;10.854;2024-01-25T09:57:46;11.85;;;2.33;;
65896;SDS011;52677;50.898;10.854;2024-01-25T09:59:52;7.95;;;3.22;;
65896;SDS011;52677;50.898;10.854;2024-01-25T10:01:55;6.72;;;2.45;;
65896;SDS011;52677;50.898;10.854;2024-01-25T10:03:56;11.70;;;2.50;;
65896;SDS011;52677;50.898;10.854;2024-01-25T10:05:56;12.18;;;2.95;;
65896;SDS011;52677;50.898;10.854;2024-01-25T10:07:57;11.10;;;3.17;;
65896;SDS011;52677;50.898;10.854;2024-01-25T10:10:01;12.90;;;2.88;;
65896;SDS011;52677;50.898;10.854;2024-01-25T10:12:01;7.20;;;2.60;;
65896;SDS011;52677;50.898;10.854;2024-01-25T10:14:02;10.48;;;2.47;;
65896;SDS011;52677;50.898;10.854;2024-01-25T10:16:03;7.45;;;2.10;;
65896;SDS011;52677;50.898;10.854;2024-01-25T10:18:05;6.13;;;2.65;;
65896;SDS011;52677;50.898;10.854;2024-01-25T10:20:15;8.93;;;2.58;;
65896;SDS011;52677;50.898;10.854;2024-01-25T10:22:16;5.22;;;2.10;;
65896;SDS011;52677;50.898;10.854;2024-01-25T10:24:16;12.77;;;3.30;;
65896;SDS011;52677;50.898;10.854;2024-01-25T10:26:16;12.00;;;2.80;;
65896;SDS011;52677;50.898;10.854;2024-01-25T10:28:17;11.13;;;3.03;;
65896;SDS011;52677;50.898;10.854;2024-01-25T10:30:18;13.60;;;2.63;;
65896;SDS011;52677;50.898;10.854;2024-01-25T10:32:19;5.20;;;2.03;;
65896;SDS011;52677;50.898;10.854;2024-01-25T10:34:20;10.75;;;3.05;;
65896;SDS011;52677;50.898;10.854;2024-01-25T10:36:21;9.35;;;1.98;;
65896;SDS011;52677;50.898;10.854;2024-01-25T10:38:22;9.07;;;2.42;;
65896;SDS011;52677;50.898;10.854;2024-01-25T10:40:23;7.88;;;2.33;;
65896;SDS011;52677;50.898;10.854;2024-01-25T10:42:24;6.97;;;2.15;;
65896;SDS011;52677;50.898;10.854;2024-01-25T10:44:24;11.50;;;2.67;;
65896;SDS011;52677;50.898;10.854;2024-01-25T10:46:25;10.65;;;2.67;;
65896;SDS011;52677;50.898;10.854;2024-01-25T10:48:26;13.88;;;3.08;;
65896;SDS011;52677;50.898;10.854;2024-01-25T10:50:27;7.57;;;2.30;;
65896;SDS011;52677;50.898;10.854;2024-01-25T10:52:28;11.68;;;4.05;;
65896;SDS011;52677;50.898;10.854;2024-01-25T10:54:29;10.63;;;2.63;;
65896;SDS011;52677;50.898;10.854;2024-01-25T10:56:30;9.32;;;2.65;;
65896;SDS011;52677;50.898;10.854;2024-01-25T10:58:31;7.53;;;2.50;;
65896;SDS011;52677;50.898;10.854;2024-01-25T11:02:36;10.33;;;2.20;;
65896;SDS011;52677;50.898;10.854;2024-01-25T11:04:38;8.77;;;2.40;;
65896;SDS011;52677;50.898;10.854;2024-01-25T11:06:38;5.45;;;2.08;;
65896;SDS011;52677;50.898;10.854;2024-01-25T11:08:38;7.90;;;2.75;;
65896;SDS011;52677;50.898;10.854;2024-01-25T11:10:40;6.88;;;2.90;;
65896;SDS011;52677;50.898;10.854;2024-01-25T11:13:13;15.57;;;3.17;;
65896;SDS011;52677;50.898;10.854;2024-01-25T11:15:17;11.45;;;3.03;;
65896;SDS011;52677;50.898;10.854;2024-01-25T11:17:20;8.18;;;2.40;;
65896;SDS011;52677;50.898;10.854;2024-01-25T11:19:21;7.82;;;2.47;;
65896;SDS011;52677;50.898;10.854;2024-01-25T11:21:29;19.00;;;3.42;;
65896;SDS011;52677;50.898;10.854;2024-01-25T11:23:42;11.23;;;2.80;;
65896;SDS011;52677;50.898;10.854;2024-01-25T11:25:47;11.30;;;2.65;;
65896;SDS011;52677;50.898;10.854;2024-01-25T11:27:48;6.75;;;2.60;;
65896;SDS011;52677;50.898;10.854;2024-01-25T11:29:52;11.20;;;2.65;;
65896;SDS011;52677;50.898;10.854;2024-01-25T11:31:52;9.52;;;2.60;;
65896;SDS011;52677;50.898;10.854;2024-01-25T11:33:59;6.78;;;2.53;;
65896;SDS011;52677;50.898;10.854;2024-01-25T11:36:00;13.55;;;3.53;;
65896;SDS011;52677;50.898;10.854;2024-01-25T11:38:00;11.52;;;2.65;;
65896;SDS011;52677;50.898;10.854;2024-01-25T11:40:01;4.03;;;2.13;;
65896;SDS011;52677;50.898;10.854;2024-01-25T11:42:01;7.47;;;2.90;;
65896;SDS011;52677;50.898;10.854;2024-01-25T11:44:02;9.05;;;2.92;;
65896;SDS011;52677;50.898;10.854;2024-01-25T11:46:03;10.68;;;2.63;;
65896;SDS011;52677;50.898;10.854;2024-01-25T11:48:04;6.28;;;2.28;;
65896;SDS011;52677;50.898;10.854;2024-01-25T11:50:05;7.13;;;2.40;;